createdAt,value
2018-10-21T00:01:53.333Z,8.10
2018-10-21T00:04:21.066Z,8.20
2018-10-21T00:06:48.869Z,8.30
2018-10-21T00:09:17.261Z,8.30
2018-10-21T00:11:45.009Z,8.20
2018-10-21T00:14:12.729Z,8.10
2018-10-21T00:16:40.475Z,8.10
2018-10-21T00:19:08.218Z,8.20
2018-10-21T00:21:36.202Z,8.20
2018-10-21T00:24:04.342Z,8.20
2018-10-21T00:26:32.087Z,8.20
2018-10-21T00:28:59.805Z,8.20
2018-10-21T00:31:27.590Z,8.10
2018-10-21T00:33:55.318Z,8.00
2018-10-21T00:36:23.094Z,8.00
2018-10-21T00:38:50.832Z,7.90
2018-10-21T00:41:18.622Z,8.00
2018-10-21T00:43:46.925Z,8.00
2018-10-21T00:46:14.685Z,7.90
2018-10-21T00:48:42.425Z,7.90
2018-10-21T00:51:10.216Z,7.90
2018-10-21T00:53:37.918Z,7.80
2018-10-21T00:56:05.697Z,7.80
2018-10-21T00:58:33.407Z,7.80
2018-10-21T01:01:01.145Z,7.80
2018-10-21T01:03:28.938Z,7.80
2018-10-21T01:05:57.266Z,7.80
2018-10-21T01:08:25.053Z,7.80
2018-10-21T01:10:53.614Z,7.70
2018-10-21T01:13:21.363Z,7.80
2018-10-21T01:15:49.130Z,7.70
2018-10-21T01:18:17.029Z,7.60
2018-10-21T01:20:44.770Z,7.70
2018-10-21T01:23:13.385Z,7.70
2018-10-21T01:25:41.246Z,7.70
2018-10-21T01:28:09.053Z,7.60
2018-10-21T01:30:36.793Z,7.70
2018-10-21T01:33:05.106Z,7.60
2018-10-21T01:35:32.817Z,7.70
2018-10-21T01:38:00.604Z,7.80
2018-10-21T01:40:30.753Z,7.70
2018-10-21T01:42:58.557Z,7.90
2018-10-21T01:45:26.774Z,8.00
2018-10-21T01:47:55.334Z,8.10
2018-10-21T01:50:23.736Z,8.20
2018-10-21T01:52:51.508Z,8.20
2018-10-21T01:55:19.810Z,8.30
2018-10-21T01:57:47.562Z,8.50
2018-10-21T02:00:15.309Z,8.60
2018-10-21T02:02:43.129Z,8.70
2018-10-21T02:05:10.844Z,8.70
2018-10-21T02:07:38.593Z,8.60
2018-10-21T02:10:06.838Z,8.50
2018-10-21T02:12:34.598Z,8.50
2018-10-21T02:15:02.387Z,8.40
2018-10-21T02:17:30.106Z,8.40
2018-10-21T02:19:57.837Z,8.30
2018-10-21T02:22:25.841Z,8.20
2018-10-21T02:24:53.577Z,8.10
2018-10-21T02:27:21.376Z,8.00
2018-10-21T02:29:49.077Z,7.80
2018-10-21T02:32:16.849Z,7.70
2018-10-21T02:34:44.581Z,7.60
2018-10-21T02:37:12.357Z,7.60
2018-10-21T02:39:40.101Z,7.60
2018-10-21T02:42:07.855Z,7.60
2018-10-21T02:44:35.603Z,7.50
2018-10-21T02:47:03.345Z,7.50
2018-10-21T02:49:31.129Z,7.50
2018-10-21T02:52:04.233Z,7.50
2018-10-21T02:54:32.296Z,7.40
2018-10-21T02:57:00.167Z,7.40
2018-10-21T02:59:28.134Z,7.30
2018-10-21T03:01:55.882Z,7.30
2018-10-21T03:04:24.069Z,7.20
2018-10-21T03:06:52.004Z,7.10
2018-10-21T03:09:19.947Z,7.10
2018-10-21T03:11:47.654Z,7.00
2018-10-21T03:14:15.403Z,7.10
2018-10-21T03:16:43.138Z,7.00
2018-10-21T03:19:11.015Z,6.90
2018-10-21T03:21:38.842Z,7.00
2018-10-21T03:24:13.270Z,6.90
2018-10-21T03:26:40.978Z,6.90
2018-10-21T03:29:08.717Z,6.90
2018-10-21T03:31:36.452Z,6.80
2018-10-21T03:34:04.308Z,6.80
2018-10-21T03:36:32.015Z,6.70
2018-10-21T03:39:00.392Z,6.70
2018-10-21T03:41:28.101Z,6.60
2018-10-21T03:43:55.859Z,6.60
2018-10-21T03:46:23.594Z,6.60
2018-10-21T03:48:51.330Z,6.60
2018-10-21T03:51:19.035Z,6.70
2018-10-21T03:53:46.838Z,6.70
2018-10-21T03:56:14.537Z,6.70
2018-10-21T03:58:42.293Z,6.80
2018-10-21T04:01:10.023Z,6.80
2018-10-21T04:03:37.757Z,6.70
2018-10-21T04:06:05.469Z,6.70
2018-10-21T04:08:33.209Z,6.70
2018-10-21T04:11:00.921Z,6.80
2018-10-21T04:13:28.665Z,6.70
2018-10-21T04:15:56.504Z,6.80
2018-10-21T04:18:24.182Z,6.80
2018-10-21T04:20:51.922Z,6.80
2018-10-21T04:23:20.137Z,6.80
2018-10-21T04:25:48.205Z,6.80
2018-10-21T04:28:16.071Z,6.80
2018-10-21T04:30:44.017Z,6.80
2018-10-21T04:33:47.428Z,6.80
2018-10-21T04:36:17.957Z,6.70
2018-10-21T04:38:51.260Z,6.70
2018-10-21T04:41:18.974Z,6.70
2018-10-21T04:43:46.690Z,6.70
2018-10-21T04:46:14.439Z,6.70
2018-10-21T04:48:42.157Z,6.70
2018-10-21T04:51:10.026Z,6.60
2018-10-21T04:53:37.729Z,6.60
2018-10-21T04:56:05.508Z,6.60
2018-10-21T04:58:33.226Z,6.50
2018-10-21T05:01:00.991Z,6.50
2018-10-21T05:03:28.689Z,6.40
2018-10-21T05:05:56.418Z,6.40
2018-10-21T05:08:24.717Z,6.40
2018-10-21T05:10:52.470Z,6.20
2018-10-21T05:13:20.221Z,6.20
2018-10-21T05:15:48.030Z,6.20
2018-10-21T05:18:15.742Z,6.10
2018-10-21T05:20:43.580Z,6.20
2018-10-21T05:23:11.318Z,6.10
2018-10-21T05:25:39.077Z,6.10
2018-10-21T05:28:06.877Z,6.10
2018-10-21T05:30:34.614Z,6.00
2018-10-21T05:33:02.341Z,5.90
2018-10-21T05:35:30.189Z,5.90
2018-10-21T05:37:57.997Z,6.00
2018-10-21T05:40:25.703Z,6.00
2018-10-21T05:42:53.926Z,6.00
2018-10-21T05:45:21.617Z,6.00
2018-10-21T05:47:49.362Z,5.90
2018-10-21T05:50:19.036Z,5.90
2018-10-21T05:52:49.102Z,6.10
2018-10-21T05:55:17.531Z,6.00
2018-10-21T05:57:46.286Z,6.10
2018-10-21T06:00:16.979Z,6.10
2018-10-21T06:02:46.631Z,6.30
2018-10-21T06:05:44.501Z,6.40
2018-10-21T06:08:12.250Z,6.40
2018-10-21T06:10:40.854Z,6.60
2018-10-21T06:13:09.504Z,6.70
2018-10-21T06:15:37.255Z,6.70
2018-10-21T06:18:07.394Z,6.80
2018-10-21T06:20:40.313Z,6.90
2018-10-21T06:23:08.045Z,7.10
2018-10-21T06:25:35.791Z,7.20
2018-10-21T06:28:03.533Z,7.30
2018-10-21T06:30:31.245Z,7.40
2018-10-21T06:32:59.070Z,7.40
2018-10-21T06:35:26.784Z,7.50
2018-10-21T06:37:54.526Z,7.50
2018-10-21T06:40:22.225Z,7.50
2018-10-21T06:42:49.953Z,7.50
2018-10-21T06:45:17.737Z,7.60
2018-10-21T06:47:45.476Z,7.60
2018-10-21T06:50:14.474Z,7.60
2018-10-21T06:52:42.249Z,7.70
2018-10-21T06:55:10.100Z,7.60
2018-10-21T06:57:37.872Z,7.70
2018-10-21T07:00:05.825Z,7.70
2018-10-21T07:02:33.621Z,7.80
2018-10-21T07:05:01.447Z,7.70
2018-10-21T07:07:29.170Z,7.70
2018-10-21T07:09:56.916Z,7.80
2018-10-21T07:12:24.660Z,7.80
2018-10-21T07:14:52.507Z,7.70
2018-10-21T07:17:20.245Z,7.80
2018-10-21T07:19:47.938Z,7.70
2018-10-21T07:22:15.700Z,7.80
2018-10-21T07:24:43.479Z,7.80
2018-10-21T07:27:11.197Z,7.80
2018-10-21T07:29:38.972Z,7.80
2018-10-21T07:32:07.473Z,7.70
2018-10-21T07:34:35.241Z,7.60
2018-10-21T07:37:03.558Z,7.60
2018-10-21T07:39:31.290Z,7.70
2018-10-21T07:41:59.016Z,7.80
2018-10-21T07:44:26.758Z,7.80
2018-10-21T07:46:54.493Z,7.90
2018-10-21T07:49:22.241Z,8.00
2018-10-21T07:51:49.933Z,7.90
2018-10-21T07:54:17.650Z,8.00
2018-10-21T07:56:45.363Z,8.10
2018-10-21T07:59:13.180Z,8.00
2018-10-21T08:01:40.901Z,8.00
2018-10-21T08:04:08.685Z,8.20
2018-10-21T08:06:41.969Z,8.20
2018-10-21T08:09:11.362Z,8.30
2018-10-21T08:11:39.098Z,8.40
2018-10-21T08:14:06.877Z,8.60
2018-10-21T08:16:34.637Z,8.80
2018-10-21T08:19:02.369Z,8.90
2018-10-21T08:21:30.102Z,8.90
2018-10-21T08:23:57.836Z,8.80
2018-10-21T08:26:25.574Z,8.70
2018-10-21T08:28:53.302Z,8.60
2018-10-21T08:31:21.006Z,8.70
2018-10-21T08:33:48.834Z,8.70
2018-10-21T08:36:16.564Z,8.90
2018-10-21T08:38:44.325Z,9.00
2018-10-21T08:41:12.401Z,9.00
2018-10-21T08:43:40.134Z,8.80
2018-10-21T08:46:08.621Z,8.90
2018-10-21T08:48:36.265Z,9.10
2018-10-21T08:51:04.002Z,8.90
2018-10-21T08:53:31.722Z,9.00
2018-10-21T08:55:59.560Z,9.20
2018-10-21T08:58:27.246Z,9.20
2018-10-21T09:00:55.173Z,9.30
2018-10-21T09:03:22.861Z,9.60
2018-10-21T09:05:50.661Z,10.00
2018-10-21T09:08:18.369Z,11.10
2018-10-21T09:10:46.304Z,12.00
2018-10-21T09:13:14.002Z,11.20
2018-10-21T09:15:41.725Z,10.70
2018-10-21T09:18:09.442Z,13.10
2018-10-21T09:20:37.288Z,16.40
2018-10-21T09:23:04.998Z,18.60
2018-10-21T09:25:32.780Z,19.60
2018-10-21T09:28:00.571Z,21.50
2018-10-21T09:30:28.322Z,20.60
2018-10-21T09:32:56.070Z,20.90
2018-10-21T09:35:23.846Z,20.30
2018-10-21T09:37:51.551Z,20.00
2018-10-21T09:40:20.316Z,20.00
2018-10-21T09:42:48.693Z,19.90
2018-10-21T09:45:17.809Z,19.80
2018-10-21T09:47:45.765Z,19.60
2018-10-21T09:50:13.851Z,20.20
2018-10-21T09:52:41.718Z,20.10
2018-10-21T09:55:15.067Z,19.00
2018-10-21T09:57:42.949Z,20.30
2018-10-21T10:00:10.685Z,18.60
2018-10-21T10:03:12.269Z,19.50
2018-10-21T10:05:40.053Z,20.50
2018-10-21T10:08:07.758Z,20.20
2018-10-21T10:10:35.494Z,20.30
2018-10-21T10:13:03.222Z,18.30
2018-10-21T10:15:30.957Z,18.30
2018-10-21T10:17:58.676Z,16.60
2018-10-21T10:20:26.416Z,17.20
2018-10-21T10:22:54.182Z,17.00
2018-10-21T10:25:21.961Z,17.10
2018-10-21T10:27:49.678Z,17.30
2018-10-21T10:30:17.498Z,18.60
2018-10-21T10:32:45.167Z,18.80
2018-10-21T10:35:13.958Z,20.30
2018-10-21T10:37:41.953Z,19.60
2018-10-21T10:40:10.951Z,19.40
2018-10-21T10:42:39.349Z,20.20
2018-10-21T10:45:07.557Z,21.10
2018-10-21T10:47:35.513Z,21.40
2018-10-21T10:50:03.302Z,20.00
2018-10-21T10:52:31.022Z,19.80
2018-10-21T10:54:58.771Z,19.60
2018-10-21T10:57:26.532Z,19.60
2018-10-21T10:59:55.201Z,20.40
2018-10-21T11:02:23.158Z,19.70
2018-10-21T11:04:51.068Z,19.50
2018-10-21T11:07:18.990Z,19.60
2018-10-21T11:09:46.805Z,19.20
2018-10-21T11:12:14.552Z,20.30
2018-10-21T11:14:42.393Z,18.70
2018-10-21T11:17:10.852Z,18.60
2018-10-21T11:19:38.565Z,17.60
2018-10-21T11:22:06.363Z,17.80
2018-10-21T11:24:38.357Z,17.80
2018-10-21T11:27:06.736Z,18.00
2018-10-21T11:29:34.459Z,18.30
2018-10-21T11:32:02.211Z,19.40
2018-10-21T11:34:29.967Z,20.30
2018-10-21T11:36:57.744Z,19.80
2018-10-21T11:39:25.452Z,19.80
2018-10-21T11:41:53.203Z,19.70
2018-10-21T11:44:20.917Z,19.30
2018-10-21T11:46:48.671Z,18.10
2018-10-21T11:49:16.500Z,18.50
2018-10-21T11:51:44.313Z,18.30
2018-10-21T11:54:12.023Z,17.90
2018-10-21T11:56:39.754Z,17.90
2018-10-21T11:59:08.330Z,18.10
2018-10-21T12:01:36.089Z,17.80
2018-10-21T12:04:04.082Z,17.70
2018-10-21T12:06:32.062Z,17.70
2018-10-21T12:08:59.910Z,17.60
2018-10-21T12:11:27.697Z,17.50
2018-10-21T12:13:55.527Z,17.80
2018-10-21T12:16:23.266Z,18.00
2018-10-21T12:18:51.019Z,17.80
2018-10-21T12:21:18.734Z,17.70
2018-10-21T12:23:46.574Z,17.90
2018-10-21T12:26:14.440Z,17.30
2018-10-21T12:28:42.221Z,17.20
2018-10-21T12:31:10.012Z,16.90
2018-10-21T12:33:43.825Z,17.20
2018-10-21T12:36:12.099Z,17.20
2018-10-21T12:38:39.834Z,17.20
2018-10-21T12:41:07.618Z,17.10
2018-10-21T12:43:35.452Z,16.90
2018-10-21T12:46:03.227Z,16.70
2018-10-21T12:48:32.895Z,16.30
2018-10-21T12:51:00.770Z,16.30
2018-10-21T12:53:28.537Z,16.20
2018-10-21T12:55:56.362Z,16.30
2018-10-21T12:58:24.398Z,16.50
2018-10-21T13:00:52.117Z,16.40
2018-10-21T13:03:19.863Z,16.50
2018-10-21T13:05:47.621Z,16.40
2018-10-21T13:08:15.361Z,16.50
2018-10-21T13:10:43.209Z,16.70
2018-10-21T13:13:11.003Z,16.40
2018-10-21T13:15:38.682Z,16.50
2018-10-21T13:18:06.742Z,16.50
2018-10-21T13:20:34.986Z,16.60
2018-10-21T13:23:02.758Z,16.60
2018-10-21T13:25:30.502Z,16.30
2018-10-21T13:27:58.438Z,16.70
2018-10-21T13:30:26.157Z,16.40
2018-10-21T13:32:53.928Z,16.30
2018-10-21T13:35:21.689Z,16.30
2018-10-21T13:37:49.434Z,16.30
2018-10-21T13:40:18.154Z,16.20
2018-10-21T13:42:45.938Z,16.10
2018-10-21T13:45:13.638Z,16.10
2018-10-21T13:47:41.377Z,16.00
2018-10-21T13:50:09.150Z,15.80
2018-10-21T13:52:36.947Z,15.90
2018-10-21T13:55:04.682Z,15.80
2018-10-21T13:57:32.443Z,15.80
2018-10-21T14:00:00.165Z,15.90
2018-10-21T14:02:27.906Z,16.00
2018-10-21T14:04:55.638Z,16.00
2018-10-21T14:07:23.473Z,16.00
2018-10-21T14:09:51.158Z,15.90
2018-10-21T14:12:18.925Z,16.00
2018-10-21T14:14:46.709Z,15.80
2018-10-21T14:17:15.173Z,15.60
2018-10-21T14:19:43.007Z,15.80
2018-10-21T14:22:10.848Z,15.90
2018-10-21T14:24:39.063Z,15.80
2018-10-21T14:27:08.423Z,15.90
2018-10-21T14:29:36.235Z,15.90
2018-10-21T14:32:04.186Z,15.70
2018-10-21T14:34:32.346Z,16.10
2018-10-21T14:37:00.310Z,16.20
2018-10-21T14:39:28.010Z,16.10
2018-10-21T14:41:55.851Z,16.10
2018-10-21T14:44:23.561Z,16.10
2018-10-21T14:46:51.304Z,16.00
2018-10-21T14:49:19.321Z,16.20
2018-10-21T14:51:47.085Z,16.20
2018-10-21T14:54:14.851Z,16.10
2018-10-21T14:56:42.565Z,16.00
2018-10-21T14:59:10.290Z,16.10
2018-10-21T15:01:38.316Z,16.20
2018-10-21T15:04:06.390Z,16.10
2018-10-21T15:06:34.171Z,16.00
2018-10-21T15:09:02.279Z,16.10
2018-10-21T15:11:30.014Z,16.10
2018-10-21T15:13:57.827Z,16.10
2018-10-21T15:16:25.534Z,16.20
2018-10-21T15:18:53.265Z,15.90
2018-10-21T15:21:21.440Z,15.90
2018-10-21T15:23:49.201Z,16.00
2018-10-21T15:26:17.008Z,15.80
2018-10-21T15:28:45.070Z,15.90
2018-10-21T15:31:12.782Z,15.80
2018-10-21T15:33:40.618Z,15.70
2018-10-21T15:36:08.325Z,15.70
2018-10-21T15:38:36.092Z,15.60
2018-10-21T15:41:03.894Z,15.70
2018-10-21T15:43:31.645Z,15.70
2018-10-21T15:45:59.353Z,15.50
2018-10-21T15:48:27.089Z,15.50
2018-10-21T15:51:06.658Z,15.20
2018-10-21T15:53:34.603Z,15.10
2018-10-21T15:56:02.332Z,15.10
2018-10-21T15:58:30.077Z,15.10
2018-10-21T16:00:57.821Z,14.90
2018-10-21T16:03:25.729Z,14.70
2018-10-21T16:05:53.449Z,14.60
2018-10-21T16:08:21.198Z,14.50
2018-10-21T16:10:48.980Z,14.50
2018-10-21T16:13:16.686Z,14.40
2018-10-21T16:15:44.479Z,14.40
2018-10-21T16:18:12.150Z,14.20
2018-10-21T16:20:39.890Z,14.00
2018-10-21T16:23:07.601Z,13.90
2018-10-21T16:25:35.482Z,13.80
2018-10-21T16:28:03.242Z,13.70
2018-10-21T16:30:31.269Z,13.70
2018-10-21T16:32:59.040Z,13.60
2018-10-21T16:35:26.770Z,13.40
2018-10-21T16:37:54.501Z,13.30
2018-10-21T16:40:22.240Z,13.20
2018-10-21T16:42:49.973Z,13.10
2018-10-21T16:45:17.775Z,13.00
2018-10-21T16:47:45.432Z,12.90
2018-10-21T16:50:14.572Z,12.90
2018-10-21T16:52:43.348Z,12.70
2018-10-21T16:55:11.649Z,12.60
2018-10-21T16:57:39.430Z,12.50
2018-10-21T17:00:08.892Z,12.50
2018-10-21T17:02:36.550Z,12.30
2018-10-21T17:05:04.564Z,12.30
2018-10-21T17:07:32.261Z,12.20
2018-10-21T17:10:00.284Z,12.10
2018-10-21T17:12:27.727Z,12.10
2018-10-21T17:14:55.439Z,12.00
2018-10-21T17:17:23.189Z,11.90
2018-10-21T17:19:50.889Z,11.80
2018-10-21T17:22:18.761Z,11.90
2018-10-21T17:24:46.481Z,11.80
2018-10-21T17:27:14.225Z,11.80
2018-10-21T17:29:41.992Z,11.80
2018-10-21T17:32:09.734Z,11.70
2018-10-21T17:34:37.543Z,11.80
2018-10-21T17:37:05.269Z,11.90
2018-10-21T17:39:33.034Z,11.80
2018-10-21T17:42:00.769Z,11.80
2018-10-21T17:44:28.538Z,11.80
2018-10-21T17:46:56.256Z,11.80
2018-10-21T17:49:24.013Z,11.80
2018-10-21T17:51:51.796Z,11.80
2018-10-21T17:54:19.542Z,11.80
2018-10-21T17:57:00.658Z,11.80
2018-10-21T17:59:28.965Z,11.60
2018-10-21T18:01:57.518Z,11.70
2018-10-21T18:04:25.709Z,11.80
2018-10-21T18:06:53.463Z,11.70
2018-10-21T18:09:21.210Z,11.50
2018-10-21T18:11:48.926Z,11.40
2018-10-21T18:14:16.741Z,11.40
2018-10-21T18:16:44.469Z,11.20
2018-10-21T18:19:12.247Z,11.20
2018-10-21T18:21:39.946Z,11.10
2018-10-21T18:24:08.141Z,11.00
2018-10-21T18:26:35.911Z,10.90
2018-10-21T18:29:03.717Z,10.70
2018-10-21T18:31:31.603Z,10.70
2018-10-21T18:33:59.678Z,10.80
2018-10-21T18:36:27.395Z,10.80
2018-10-21T18:38:55.859Z,10.60
2018-10-21T18:41:23.674Z,10.50
2018-10-21T18:43:51.382Z,10.30
2018-10-21T18:46:19.191Z,10.20
2018-10-21T18:48:46.924Z,10.00
2018-10-21T18:51:14.721Z,9.90
2018-10-21T18:53:42.449Z,9.80
2018-10-21T18:56:10.186Z,9.80
2018-10-21T18:58:37.908Z,9.70
2018-10-21T19:01:05.712Z,9.60
2018-10-21T19:03:33.417Z,9.50
2018-10-21T19:06:01.153Z,9.40
2018-10-21T19:08:28.868Z,9.40
2018-10-21T19:10:56.617Z,9.40
2018-10-21T19:13:24.527Z,9.30
2018-10-21T19:15:52.873Z,9.10
2018-10-21T19:18:20.583Z,8.90
2018-10-21T19:20:48.309Z,8.90
2018-10-21T19:23:16.012Z,8.90
2018-10-21T19:25:43.826Z,8.80
2018-10-21T19:28:11.643Z,8.80
2018-10-21T19:30:39.331Z,8.70
2018-10-21T19:33:07.125Z,8.80
2018-10-21T19:35:34.842Z,8.80
2018-10-21T19:38:02.637Z,8.80
2018-10-21T19:40:30.977Z,8.70
2018-10-21T19:42:58.772Z,8.80
2018-10-21T19:45:26.453Z,8.80
2018-10-21T19:47:54.862Z,8.70
2018-10-21T19:50:23.174Z,8.80
2018-10-21T19:52:50.917Z,8.90
2018-10-21T19:55:18.760Z,8.90
2018-10-21T19:57:46.500Z,8.90
2018-10-21T20:00:15.521Z,8.90
2018-10-21T20:02:43.813Z,8.90
2018-10-21T20:05:11.530Z,8.90
2018-10-21T20:07:39.442Z,8.90
2018-10-21T20:10:08.241Z,8.90
2018-10-21T20:12:36.288Z,8.90
2018-10-21T20:15:04.381Z,8.90
2018-10-21T20:17:32.117Z,8.90
2018-10-21T20:19:59.818Z,8.90
2018-10-21T20:22:27.586Z,8.90
2018-10-21T20:24:55.356Z,8.80
2018-10-21T20:27:23.109Z,8.80
2018-10-21T20:29:50.800Z,8.70
2018-10-21T20:34:53.293Z,8.60
2018-10-21T20:37:21.061Z,8.50
2018-10-21T20:39:48.753Z,8.50
2018-10-21T20:42:16.496Z,8.50
2018-10-21T20:44:44.196Z,8.40
2018-10-21T20:47:11.921Z,8.40
2018-10-21T20:49:40.189Z,8.30
2018-10-21T20:52:07.973Z,8.20
2018-10-21T20:54:41.216Z,8.20
2018-10-21T20:57:10.240Z,8.20
2018-10-21T20:59:39.393Z,8.10
2018-10-21T21:02:08.634Z,8.10
2018-10-21T21:04:36.738Z,7.90
2018-10-21T21:07:05.196Z,8.00
2018-10-21T21:09:32.937Z,7.80
2018-10-21T21:12:00.814Z,7.80
2018-10-21T21:14:28.549Z,7.70
2018-10-21T21:16:56.256Z,7.70
2018-10-21T21:19:24.092Z,7.60
2018-10-21T21:21:51.979Z,7.60
2018-10-21T21:24:19.718Z,7.50
2018-10-21T21:26:47.915Z,7.50
2018-10-21T21:29:15.646Z,7.50
2018-10-21T21:31:43.951Z,7.50
2018-10-21T21:34:11.735Z,7.40
2018-10-21T21:36:39.451Z,7.30
2018-10-21T21:39:08.548Z,7.30
2018-10-21T21:41:36.261Z,7.30
2018-10-21T21:44:04.026Z,7.30
2018-10-21T21:46:31.822Z,7.30
2018-10-21T21:48:59.755Z,7.20
2018-10-21T21:51:27.494Z,7.20
2018-10-21T21:53:55.288Z,7.00
2018-10-21T21:56:22.983Z,7.00
2018-10-21T21:58:50.701Z,7.00
2018-10-21T22:01:18.438Z,7.10
2018-10-21T22:03:46.317Z,7.10
2018-10-21T22:06:14.147Z,7.00
2018-10-21T22:08:42.036Z,7.10
2018-10-21T22:11:09.785Z,7.20
2018-10-21T22:13:37.518Z,7.20
2018-10-21T22:16:05.516Z,7.10
2018-10-21T22:18:33.181Z,7.10
2018-10-21T22:21:00.909Z,7.00
2018-10-21T22:23:28.930Z,7.00
2018-10-21T22:25:56.693Z,7.00
2018-10-21T22:28:24.414Z,7.00
2018-10-21T22:30:52.153Z,7.00
2018-10-21T22:33:19.893Z,7.00
2018-10-21T22:35:47.629Z,7.00
2018-10-21T22:38:15.585Z,6.90
2018-10-21T22:40:44.151Z,6.80
2018-10-21T22:43:11.887Z,6.90
2018-10-21T22:45:39.600Z,6.90
2018-10-21T22:48:07.412Z,6.80
2018-10-21T22:50:35.126Z,6.90
2018-10-21T22:53:02.865Z,6.80
2018-10-21T22:55:30.569Z,6.70
2018-10-21T22:57:58.354Z,6.60
2018-10-21T23:00:26.053Z,6.60
2018-10-21T23:02:54.325Z,6.60
2018-10-21T23:05:22.473Z,6.50
2018-10-21T23:07:50.361Z,6.50
2018-10-21T23:10:18.476Z,6.40
2018-10-21T23:12:46.197Z,6.40
2018-10-21T23:15:13.887Z,6.30
2018-10-21T23:17:41.638Z,6.30
2018-10-21T23:20:09.338Z,6.20
2018-10-21T23:22:37.112Z,6.20
2018-10-21T23:25:05.382Z,6.10
2018-10-21T23:27:33.122Z,6.00
2018-10-21T23:30:00.899Z,6.00
2018-10-21T23:32:28.699Z,6.00
2018-10-21T23:34:56.422Z,6.00
2018-10-21T23:37:24.169Z,6.00
2018-10-21T23:39:51.890Z,6.00
2018-10-21T23:42:19.629Z,6.00
2018-10-21T23:44:47.390Z,6.00
2018-10-21T23:47:15.111Z,5.90
2018-10-21T23:49:42.853Z,5.80
2018-10-21T23:52:10.616Z,5.80
2018-10-21T23:54:38.357Z,5.70
2018-10-21T23:57:07.169Z,5.60
2018-10-21T23:59:35.552Z,5.60
